createdAt,value
2023-05-19T00:00:12.313Z,11.52
2023-05-19T00:02:15.824Z,11.57
2023-05-19T00:04:18.403Z,11.50
2023-05-19T00:06:23.320Z,11.44
2023-05-19T00:08:25.568Z,11.47
2023-05-19T00:10:27.814Z,11.42
2023-05-19T00:12:29.548Z,11.38
2023-05-19T00:14:31.501Z,11.39
2023-05-19T00:16:33.999Z,11.37
2023-05-19T00:18:36.936Z,11.39
2023-05-19T00:20:38.542Z,11.40
2023-05-19T00:22:40.051Z,11.39
2023-05-19T00:24:41.644Z,11.27
2023-05-19T00:26:43.160Z,11.22
2023-05-19T00:28:44.776Z,11.29
2023-05-19T00:30:46.300Z,11.24
2023-05-19T00:32:47.949Z,11.24
2023-05-19T00:34:50.877Z,11.19
2023-05-19T00:36:52.396Z,11.17
2023-05-19T00:38:53.921Z,11.19
2023-05-19T00:40:55.500Z,11.26
2023-05-19T00:42:57.104Z,11.16
2023-05-19T00:44:58.651Z,11.06
2023-05-19T00:47:00.343Z,11.04
2023-05-19T00:49:01.942Z,10.98
2023-05-19T00:51:05.531Z,10.83
2023-05-19T00:53:07.442Z,10.87
2023-05-19T00:55:09.750Z,10.53
2023-05-19T00:57:11.768Z,10.70
2023-05-19T00:59:13.303Z,10.69
2023-05-19T01:01:14.963Z,10.71
2023-05-19T01:03:16.678Z,10.80
2023-05-19T01:05:18.345Z,10.72
2023-05-19T01:07:21.395Z,10.73
2023-05-19T01:09:23.408Z,10.63
2023-05-19T01:11:24.959Z,10.65
2023-05-19T01:13:27.199Z,10.58
2023-05-19T01:15:29.137Z,10.55
2023-05-19T01:17:41.454Z,10.49
2023-05-19T01:19:56.005Z,10.50
2023-05-19T01:22:14.065Z,10.25
2023-05-19T01:24:59.043Z,10.40
2023-05-19T01:27:19.253Z,10.36
2023-05-19T01:29:41.558Z,10.40
2023-05-19T01:31:46.067Z,10.45
2023-05-19T01:33:50.149Z,10.37
2023-05-19T01:35:53.742Z,10.36
2023-05-19T01:37:57.558Z,10.20
2023-05-19T01:39:58.975Z,10.38
2023-05-19T01:42:01.509Z,10.35
2023-05-19T01:44:03.162Z,10.41
2023-05-19T01:46:05.951Z,10.43
2023-05-19T01:48:10.982Z,10.38
2023-05-19T01:50:12.894Z,10.39
2023-05-19T01:52:14.409Z,10.35
2023-05-19T01:54:15.958Z,10.36
2023-05-19T01:56:25.182Z,10.32
2023-05-19T01:58:33.484Z,10.24
2023-05-19T02:00:51.238Z,10.35
2023-05-19T02:03:05.019Z,10.23
2023-05-19T02:05:13.514Z,10.29
2023-05-19T02:07:24.722Z,10.19
2023-05-19T02:09:37.657Z,10.18
2023-05-19T02:11:43.094Z,10.17
2023-05-19T02:13:48.076Z,10.14
2023-05-19T02:15:52.135Z,10.12
2023-05-19T02:17:55.827Z,10.30
2023-05-19T02:19:57.378Z,10.25
2023-05-19T02:22:00.296Z,10.26
2023-05-19T02:24:01.854Z,10.39
2023-05-19T02:26:03.543Z,10.45
2023-05-19T02:28:05.288Z,10.41
2023-05-19T02:30:08.692Z,10.33
2023-05-19T02:32:10.900Z,10.34
2023-05-19T02:34:12.664Z,10.14
2023-05-19T02:36:14.219Z,10.38
2023-05-19T02:38:17.113Z,10.42
2023-05-19T02:40:18.886Z,10.41
2023-05-19T02:42:20.878Z,10.38
2023-05-19T02:44:22.398Z,10.33
2023-05-19T02:46:24.180Z,10.32
2023-05-19T02:48:25.788Z,10.32
2023-05-19T02:50:27.378Z,10.24
2023-05-19T02:52:28.926Z,10.27
2023-05-19T02:54:32.540Z,10.33
2023-05-19T02:56:34.176Z,10.30
2023-05-19T02:58:35.711Z,10.24
2023-05-19T03:00:37.244Z,10.20
2023-05-19T03:02:38.859Z,10.25
2023-05-19T03:04:40.434Z,10.22
2023-05-19T03:06:41.946Z,10.27
2023-05-19T03:08:43.527Z,10.17
2023-05-19T03:10:47.315Z,10.16
2023-05-19T03:12:48.686Z,10.19
2023-05-19T03:14:50.326Z,10.12
2023-05-19T03:16:51.992Z,10.06
2023-05-19T03:18:53.660Z,10.10
2023-05-19T03:20:55.268Z,10.12
2023-05-19T03:22:58.230Z,10.21
2023-05-19T03:24:59.724Z,10.22
2023-05-19T03:27:02.626Z,10.22
2023-05-19T03:29:04.157Z,10.12
2023-05-19T03:31:05.770Z,10.15
2023-05-19T03:33:07.532Z,10.15
2023-05-19T03:35:09.601Z,10.12
2023-05-19T03:37:11.120Z,10.21
2023-05-19T03:39:12.738Z,10.11
2023-05-19T03:41:14.305Z,10.10
2023-05-19T03:43:17.178Z,10.07
2023-05-19T03:45:18.736Z,10.10
2023-05-19T03:47:20.269Z,10.21
2023-05-19T03:49:21.800Z,10.24
2023-05-19T03:51:23.382Z,10.18
2023-05-19T03:53:24.909Z,10.14
2023-05-19T03:55:26.973Z,10.11
2023-05-19T03:57:28.526Z,10.15
2023-05-19T03:59:31.638Z,10.12
2023-05-19T04:01:33.218Z,10.17
2023-05-19T04:03:34.776Z,10.07
2023-05-19T04:05:36.375Z,10.07
2023-05-19T04:07:38.072Z,10.02
2023-05-19T04:09:39.620Z,10.12
2023-05-19T04:11:41.516Z,10.09
2023-05-19T04:13:44.512Z,10.03
2023-05-19T04:15:48.128Z,10.16
2023-05-19T04:17:49.701Z,10.17
2023-05-19T04:19:51.281Z,10.08
2023-05-19T04:21:52.805Z,10.05
2023-05-19T04:23:54.360Z,10.14
2023-05-19T04:25:55.932Z,10.11
2023-05-19T04:27:57.464Z,10.05
2023-05-19T04:29:58.988Z,9.99
2023-05-19T04:32:01.886Z,9.99
2023-05-19T04:34:03.417Z,9.97
2023-05-19T04:36:05.486Z,10.02
2023-05-19T04:38:07.058Z,9.99
2023-05-19T04:40:09.626Z,9.99
2023-05-19T04:42:11.308Z,9.98
2023-05-19T04:44:12.842Z,10.02
2023-05-19T04:46:14.511Z,10.13
2023-05-19T04:48:17.625Z,10.05
2023-05-19T04:50:19.147Z,9.98
2023-05-19T04:52:21.845Z,9.91
2023-05-19T04:54:23.454Z,9.92
2023-05-19T04:56:25.044Z,9.82
2023-05-19T04:58:26.592Z,9.99
2023-05-19T05:00:28.147Z,10.17
2023-05-19T05:02:29.716Z,10.11
2023-05-19T05:04:32.684Z,10.25
2023-05-19T05:06:34.274Z,10.23
2023-05-19T05:08:36.672Z,10.04
2023-05-19T05:10:38.215Z,9.92
2023-05-19T05:12:40.314Z,9.89
2023-05-19T05:14:42.454Z,10.08
2023-05-19T05:16:44.824Z,10.08
2023-05-19T05:18:46.998Z,10.18
2023-05-19T05:20:50.526Z,10.04
2023-05-19T05:22:52.613Z,10.17
2023-05-19T05:24:54.726Z,10.11
2023-05-19T05:26:56.266Z,9.99
2023-05-19T05:28:57.801Z,9.78
2023-05-19T05:30:59.344Z,9.84
2023-05-19T05:33:01.591Z,9.93
2023-05-19T05:35:03.523Z,10.03
2023-05-19T05:37:06.502Z,10.18
2023-05-19T05:39:08.008Z,10.11
2023-05-19T05:41:09.580Z,10.13
2023-05-19T05:43:11.089Z,10.17
2023-05-19T05:45:12.679Z,10.18
2023-05-19T05:47:14.886Z,10.21
2023-05-19T05:49:17.145Z,10.27
2023-05-19T05:51:21.489Z,10.26
2023-05-19T05:53:25.866Z,10.44
2023-05-19T05:55:28.179Z,10.59
2023-05-19T05:57:29.756Z,10.76
2023-05-19T05:59:31.269Z,10.61
2023-05-19T06:01:34.296Z,10.79
2023-05-19T06:03:38.780Z,10.81
2023-05-19T06:05:40.427Z,10.96
2023-05-19T06:07:42.329Z,10.93
2023-05-19T06:09:45.296Z,10.86
2023-05-19T06:11:46.817Z,11.05
2023-05-19T06:13:48.414Z,10.93
2023-05-19T06:15:50.926Z,10.81
2023-05-19T06:17:52.491Z,10.60
2023-05-19T06:19:54.122Z,10.85
2023-05-19T06:21:55.665Z,10.87
2023-05-19T06:23:57.219Z,10.92
2023-05-19T06:26:00.163Z,11.04
2023-05-19T06:28:01.749Z,11.06
2023-05-19T06:30:03.683Z,11.17
2023-05-19T06:32:05.277Z,11.12
2023-05-19T06:34:06.808Z,11.19
2023-05-19T06:36:08.537Z,11.08
2023-05-19T06:38:10.181Z,11.24
2023-05-19T06:40:12.826Z,11.21
2023-05-19T06:42:15.699Z,10.99
2023-05-19T06:44:17.912Z,11.11
2023-05-19T06:46:20.921Z,11.23
2023-05-19T06:48:22.457Z,11.16
2023-05-19T06:50:24.050Z,11.24
2023-05-19T06:52:25.624Z,11.38
2023-05-19T06:54:27.138Z,11.32
2023-05-19T06:56:28.737Z,11.26
2023-05-19T06:58:31.736Z,11.35
2023-05-19T07:00:33.529Z,11.47
2023-05-19T07:02:35.349Z,11.56
2023-05-19T07:04:36.943Z,11.57
2023-05-19T07:06:38.471Z,11.80
2023-05-19T07:08:40.032Z,11.58
2023-05-19T07:10:42.074Z,11.62
2023-05-19T07:12:43.920Z,11.57
2023-05-19T07:14:46.814Z,11.73
2023-05-19T07:16:48.326Z,11.92
2023-05-19T07:18:49.911Z,11.99
2023-05-19T07:20:52.254Z,12.08
2023-05-19T07:22:53.781Z,12.01
2023-05-19T07:24:55.343Z,11.93
2023-05-19T07:26:57.428Z,11.58
2023-05-19T07:28:59.041Z,11.84
2023-05-19T07:31:01.905Z,11.59
2023-05-19T07:33:03.642Z,11.72
2023-05-19T07:35:06.666Z,11.76
2023-05-19T07:37:08.219Z,11.68
2023-05-19T07:39:09.773Z,11.84
2023-05-19T07:41:11.294Z,11.88
2023-05-19T07:43:12.919Z,11.83
2023-05-19T07:45:14.479Z,11.93
2023-05-19T07:47:17.380Z,11.91
2023-05-19T07:49:18.987Z,11.84
2023-05-19T07:51:20.513Z,11.94
2023-05-19T07:53:22.224Z,11.87
2023-05-19T07:55:23.819Z,11.84
2023-05-19T07:57:25.344Z,11.81
2023-05-19T07:59:26.917Z,11.69
2023-05-19T08:01:29.722Z,11.76
2023-05-19T08:03:32.765Z,11.82
2023-05-19T08:05:34.680Z,11.67
2023-05-19T08:07:36.525Z,11.91
2023-05-19T08:09:38.046Z,11.99
2023-05-19T08:11:39.678Z,11.80
2023-05-19T08:13:41.182Z,12.02
2023-05-19T08:15:42.917Z,12.14
2023-05-19T08:17:44.586Z,12.28
2023-05-19T08:19:47.504Z,12.20
2023-05-19T08:21:49.133Z,12.18
2023-05-19T08:23:50.641Z,12.08
2023-05-19T08:25:52.221Z,12.13
2023-05-19T08:27:53.801Z,12.16
2023-05-19T08:29:55.335Z,12.21
2023-05-19T08:31:57.049Z,12.02
2023-05-19T08:33:58.646Z,12.30
2023-05-19T08:36:01.571Z,12.44
2023-05-19T08:38:03.130Z,12.28
2023-05-19T08:40:05.470Z,12.44
2023-05-19T08:42:07.340Z,12.40
2023-05-19T08:44:09.122Z,12.58
2023-05-19T08:46:13.452Z,12.76
2023-05-19T08:48:17.186Z,12.76
2023-05-19T08:50:24.124Z,12.95
2023-05-19T08:52:32.909Z,12.99
2023-05-19T08:54:41.252Z,12.99
2023-05-19T08:56:43.690Z,13.05
2023-05-19T08:58:45.889Z,12.96
2023-05-19T09:00:48.555Z,12.88
2023-05-19T09:03:00.855Z,12.87
2023-05-19T09:05:08.962Z,13.00
2023-05-19T09:07:10.820Z,12.85
2023-05-19T09:09:13.745Z,13.02
2023-05-19T09:11:15.295Z,13.09
2023-05-19T09:13:16.845Z,12.87
2023-05-19T09:15:18.713Z,13.07
2023-05-19T09:17:20.373Z,13.17
2023-05-19T09:19:22.044Z,13.02
2023-05-19T09:21:28.048Z,12.96
2023-05-19T09:23:30.741Z,13.29
2023-05-19T09:25:34.279Z,13.15
2023-05-19T09:27:36.139Z,12.81
2023-05-19T09:29:37.738Z,12.78
2023-05-19T09:31:39.526Z,12.89
2023-05-19T09:33:45.238Z,12.92
2023-05-19T09:35:47.639Z,12.81
2023-05-19T09:37:49.129Z,12.63
2023-05-19T09:39:50.790Z,12.85
2023-05-19T09:41:54.152Z,12.83
2023-05-19T09:43:55.684Z,12.66
2023-05-19T09:45:59.888Z,12.92
2023-05-19T09:48:03.951Z,12.85
2023-05-19T09:50:07.131Z,12.74
2023-05-19T09:52:09.437Z,12.70
2023-05-19T09:54:15.042Z,12.88
2023-05-19T09:56:16.813Z,12.91
2023-05-19T09:58:19.883Z,12.96
2023-05-19T10:00:22.590Z,12.90
2023-05-19T10:02:25.802Z,12.97
2023-05-19T10:04:28.824Z,12.93
2023-05-19T10:06:34.910Z,12.92
2023-05-19T10:08:37.530Z,12.92
2023-05-19T10:10:39.106Z,12.87
2023-05-19T10:12:41.216Z,12.97
2023-05-19T10:14:44.125Z,13.09
2023-05-19T10:16:45.953Z,13.13
2023-05-19T10:18:49.756Z,13.07
2023-05-19T10:20:52.064Z,13.06
2023-05-19T10:22:53.710Z,12.97
2023-05-19T10:24:55.285Z,12.83
2023-05-19T10:27:03.322Z,12.84
2023-05-19T10:29:05.548Z,13.04
2023-05-19T10:31:12.017Z,13.01
2023-05-19T10:33:16.164Z,13.07
2023-05-19T10:35:40.379Z,13.18
2023-05-19T10:37:46.173Z,13.03
2023-05-19T10:39:50.859Z,12.73
2023-05-19T10:42:03.730Z,12.85
2023-05-19T10:44:13.416Z,12.99
2023-05-19T10:46:16.404Z,12.97
2023-05-19T10:48:20.093Z,12.94
2023-05-19T10:50:21.734Z,13.02
2023-05-19T10:52:24.143Z,12.95
2023-05-19T10:54:41.772Z,12.67
2023-05-19T10:56:44.354Z,12.77
2023-05-19T10:58:50.179Z,12.91
2023-05-19T11:01:00.271Z,12.81
2023-05-19T11:03:16.067Z,12.92
2023-05-19T11:05:17.649Z,12.83
2023-05-19T11:07:20.715Z,12.83
2023-05-19T11:09:34.093Z,12.94
2023-05-19T11:11:45.979Z,12.74
2023-05-19T11:13:48.045Z,12.91
2023-05-19T11:15:49.695Z,12.90
2023-05-19T11:17:52.929Z,12.90
2023-05-19T11:19:57.655Z,12.90
2023-05-19T11:22:08.995Z,12.80
2023-05-19T11:24:10.580Z,12.84
2023-05-19T11:26:13.236Z,13.07
2023-05-19T11:28:16.321Z,13.07
2023-05-19T11:30:18.001Z,13.09
2023-05-19T11:32:21.015Z,12.91
2023-05-19T11:34:23.143Z,12.87
2023-05-19T11:36:26.969Z,13.03
2023-05-19T11:38:28.927Z,13.12
2023-05-19T11:40:30.743Z,13.06
2023-05-19T11:42:32.811Z,13.08
2023-05-19T11:44:34.381Z,13.10
2023-05-19T11:46:36.022Z,12.98
2023-05-19T11:48:37.694Z,13.05
2023-05-19T11:50:41.396Z,12.85
2023-05-19T11:52:45.498Z,12.81
2023-05-19T11:54:48.345Z,12.89
2023-05-19T11:56:49.947Z,12.98
2023-05-19T11:58:53.151Z,13.00
2023-05-19T12:00:54.730Z,12.88
2023-05-19T12:02:56.790Z,12.65
2023-05-19T12:04:58.451Z,12.62
2023-05-19T12:07:00.069Z,12.66
2023-05-19T12:09:05.486Z,12.76
2023-05-19T12:11:07.144Z,12.81
2023-05-19T12:13:08.743Z,12.85
2023-05-19T12:15:11.388Z,12.79
2023-05-19T12:17:13.948Z,12.79
2023-05-19T12:19:15.627Z,12.79
2023-05-19T12:21:17.372Z,12.92
2023-05-19T12:23:19.344Z,12.73
2023-05-19T12:25:22.592Z,12.68
2023-05-19T12:27:24.882Z,12.63
2023-05-19T12:29:28.146Z,12.35
2023-05-19T12:31:29.740Z,12.38
2023-05-19T12:33:33.605Z,12.80
2023-05-19T12:35:37.689Z,12.75
2023-05-19T12:37:41.949Z,12.85
2023-05-19T12:39:44.184Z,12.78
2023-05-19T12:41:47.064Z,12.79
2023-05-19T12:43:48.682Z,12.62
2023-05-19T12:45:50.441Z,12.66
2023-05-19T12:47:52.030Z,12.65
2023-05-19T12:49:54.551Z,12.72
2023-05-19T12:51:56.068Z,12.67
2023-05-19T12:53:57.741Z,12.83
2023-05-19T12:55:59.330Z,12.80
2023-05-19T12:58:07.170Z,12.83
2023-05-19T13:00:14.309Z,12.83
2023-05-19T13:02:16.067Z,12.56
2023-05-19T13:04:17.911Z,12.62
2023-05-19T13:06:19.564Z,12.67
2023-05-19T13:08:22.455Z,12.72
2023-05-19T13:10:24.311Z,12.81
2023-05-19T13:12:25.874Z,12.93
2023-05-19T13:14:28.767Z,12.86
2023-05-19T13:16:30.353Z,12.91
2023-05-19T13:18:31.933Z,12.81
2023-05-19T13:20:33.811Z,12.76
2023-05-19T13:22:35.479Z,12.64
2023-05-19T13:24:37.001Z,12.65
2023-05-19T13:26:38.523Z,12.60
2023-05-19T13:28:40.078Z,12.55
2023-05-19T13:30:43.801Z,12.56
2023-05-19T13:32:45.525Z,12.52
2023-05-19T13:34:47.219Z,12.57
2023-05-19T13:36:48.766Z,12.79
2023-05-19T13:38:50.322Z,12.82
2023-05-19T13:40:52.022Z,12.78
2023-05-19T13:42:53.591Z,12.63
2023-05-19T13:44:55.766Z,12.72
2023-05-19T13:46:58.687Z,12.83
2023-05-19T13:49:00.262Z,12.74
2023-05-19T13:51:01.790Z,12.60
2023-05-19T13:53:03.607Z,12.63
2023-05-19T13:55:06.453Z,12.63
2023-05-19T13:57:08.299Z,12.73
2023-05-19T13:59:09.885Z,12.68
2023-05-19T14:01:11.420Z,12.59
2023-05-19T14:03:14.518Z,12.57
2023-05-19T14:05:16.244Z,12.51
2023-05-19T14:07:17.830Z,12.62
2023-05-19T14:09:19.326Z,12.67
2023-05-19T14:11:21.280Z,12.60
2023-05-19T14:13:31.337Z,12.55
2023-05-19T14:15:34.608Z,12.66
2023-05-19T14:17:36.263Z,12.65
2023-05-19T14:19:39.243Z,12.59
2023-05-19T14:21:40.760Z,12.68
2023-05-19T14:23:42.404Z,12.62
2023-05-19T14:25:43.947Z,12.66
2023-05-19T14:27:45.529Z,12.63
2023-05-19T14:29:47.124Z,12.69
2023-05-19T14:31:49.163Z,12.64
2023-05-19T14:33:51.180Z,12.70
2023-05-19T14:35:54.196Z,12.68
2023-05-19T14:37:55.748Z,12.89
2023-05-19T14:39:57.298Z,12.90
2023-05-19T14:41:58.859Z,12.95
2023-05-19T14:44:00.476Z,13.06
2023-05-19T14:46:02.042Z,12.81
2023-05-19T14:48:03.945Z,12.95
2023-05-19T14:50:06.360Z,13.04
2023-05-19T14:52:09.253Z,13.13
2023-05-19T14:54:10.759Z,13.00
2023-05-19T14:56:12.302Z,13.08
2023-05-19T14:58:27.554Z,13.20
2023-05-19T15:00:30.878Z,12.95
2023-05-19T15:02:32.493Z,13.23
2023-05-19T15:04:34.028Z,13.25
2023-05-19T15:06:35.572Z,13.26
2023-05-19T15:08:38.728Z,13.25
2023-05-19T15:10:40.228Z,13.25
2023-05-19T15:12:41.881Z,13.23
2023-05-19T15:14:43.428Z,13.17
2023-05-19T15:16:44.993Z,13.15
2023-05-19T15:18:46.609Z,13.14
2023-05-19T15:20:48.562Z,13.06
2023-05-19T15:22:50.141Z,13.11
2023-05-19T15:24:53.064Z,13.02
2023-05-19T15:26:55.362Z,13.03
2023-05-19T15:28:56.902Z,12.99
2023-05-19T15:30:58.454Z,12.97
2023-05-19T15:33:00.118Z,13.01
2023-05-19T15:35:01.680Z,13.05
2023-05-19T15:37:03.488Z,12.90
2023-05-19T15:39:05.120Z,13.03
2023-05-19T15:41:09.205Z,13.10
2023-05-19T15:43:10.714Z,12.80
2023-05-19T15:45:12.231Z,12.98
2023-05-19T15:47:13.820Z,13.03
2023-05-19T15:49:15.364Z,13.00
2023-05-19T15:51:17.166Z,12.85
2023-05-19T15:53:18.721Z,12.95
2023-05-19T15:55:20.428Z,12.90
2023-05-19T15:57:23.459Z,12.78
2023-05-19T15:59:24.973Z,12.92
2023-05-19T16:01:26.671Z,13.00
2023-05-19T16:03:28.538Z,13.03
2023-05-19T16:05:30.141Z,12.94
2023-05-19T16:07:31.662Z,13.02
2023-05-19T16:09:33.358Z,13.05
2023-05-19T16:11:34.853Z,13.10
2023-05-19T16:13:37.841Z,13.12
2023-05-19T16:15:39.425Z,13.17
2023-05-19T16:17:41.038Z,13.23
2023-05-19T16:19:42.594Z,13.22
2023-05-19T16:21:44.144Z,13.14
2023-05-19T16:23:45.672Z,13.24
2023-05-19T16:25:47.672Z,13.33
2023-05-19T16:27:49.282Z,13.26
2023-05-19T16:29:52.168Z,13.30
2023-05-19T16:31:53.840Z,13.29
2023-05-19T16:33:55.416Z,13.30
2023-05-19T16:35:58.114Z,13.30
2023-05-19T16:37:59.707Z,13.34
2023-05-19T16:40:01.455Z,13.29
2023-05-19T16:42:03.190Z,13.37
2023-05-19T16:44:05.063Z,13.22
2023-05-19T16:46:07.983Z,13.36
2023-05-19T16:48:09.676Z,13.39
2023-05-19T16:50:11.661Z,13.49
2023-05-19T16:52:13.192Z,13.47
2023-05-19T16:54:14.741Z,13.45
2023-05-19T16:56:16.249Z,13.51
2023-05-19T16:58:17.765Z,13.48
2023-05-19T17:00:19.817Z,13.46
2023-05-19T17:02:22.838Z,13.41
2023-05-19T17:04:24.470Z,13.43
2023-05-19T17:06:26.076Z,13.44
2023-05-19T17:08:27.608Z,13.42
2023-05-19T17:10:29.116Z,13.48
2023-05-19T17:12:30.635Z,13.44
2023-05-19T17:14:32.160Z,13.51
2023-05-19T17:16:33.940Z,13.46
2023-05-19T17:18:36.860Z,13.43
2023-05-19T17:20:38.376Z,13.49
2023-05-19T17:22:39.926Z,13.47
2023-05-19T17:24:41.520Z,13.48
2023-05-19T17:26:43.097Z,13.49
2023-05-19T17:28:44.863Z,13.48
2023-05-19T17:30:46.572Z,13.47
2023-05-19T17:32:48.147Z,13.46
2023-05-19T17:34:51.128Z,13.46
2023-05-19T17:36:52.661Z,13.44
2023-05-19T17:38:54.474Z,13.48
2023-05-19T17:40:57.617Z,13.48
2023-05-19T17:42:59.184Z,13.45
2023-05-19T17:45:00.682Z,13.40
2023-05-19T17:47:02.201Z,13.42
2023-05-19T17:49:03.716Z,13.39
2023-05-19T17:51:06.605Z,13.38
2023-05-19T17:53:08.634Z,13.44
2023-05-19T17:55:11.981Z,13.47
2023-05-19T17:57:16.143Z,13.50
2023-05-19T17:59:18.209Z,13.48
2023-05-19T18:01:20.214Z,13.41
2023-05-19T18:03:22.507Z,13.32
2023-05-19T18:05:24.812Z,13.43
2023-05-19T18:07:28.007Z,13.33
2023-05-19T18:09:30.533Z,13.30
2023-05-19T18:11:32.071Z,13.30
2023-05-19T18:13:33.679Z,13.28
2023-05-19T18:15:35.367Z,13.22
2023-05-19T18:17:37.081Z,13.17
2023-05-19T18:19:38.619Z,13.11
2023-05-19T18:21:40.166Z,12.90
2023-05-19T18:23:43.341Z,12.97
2023-05-19T18:25:48.999Z,12.94
2023-05-19T18:27:50.596Z,12.99
2023-05-19T18:29:52.132Z,12.94
2023-05-19T18:31:53.735Z,12.75
2023-05-19T18:33:55.278Z,12.87
2023-05-19T18:35:57.055Z,12.85
2023-05-19T18:37:58.704Z,12.85
2023-05-19T18:40:01.616Z,12.81
2023-05-19T18:42:03.210Z,12.77
2023-05-19T18:44:04.914Z,12.72
2023-05-19T18:46:06.570Z,12.70
2023-05-19T18:48:08.223Z,12.69
2023-05-19T18:50:10.350Z,12.64
2023-05-19T18:52:12.903Z,12.77
2023-05-19T18:54:14.416Z,12.84
2023-05-19T18:56:24.303Z,12.74
2023-05-19T18:58:25.841Z,12.60
2023-05-19T19:00:35.015Z,12.41
2023-05-19T19:02:37.888Z,12.45
2023-05-19T19:04:39.734Z,12.45
2023-05-19T19:06:41.964Z,12.41
2023-05-19T19:08:44.183Z,12.44
2023-05-19T19:10:45.750Z,12.40
2023-05-19T19:12:48.700Z,12.31
2023-05-19T19:14:50.203Z,12.28
2023-05-19T19:16:51.755Z,12.29
2023-05-19T19:18:53.459Z,12.31
2023-05-19T19:20:55.066Z,12.22
2023-05-19T19:22:56.606Z,12.08
2023-05-19T19:24:58.153Z,12.16
2023-05-19T19:26:59.713Z,12.09
2023-05-19T19:29:02.614Z,12.07
2023-05-19T19:31:04.166Z,12.03
2023-05-19T19:33:06.861Z,11.95
2023-05-19T19:35:09.370Z,11.89
2023-05-19T19:37:10.937Z,11.84
2023-05-19T19:39:12.498Z,11.75
2023-05-19T19:41:14.039Z,11.84
2023-05-19T19:43:15.552Z,11.80
2023-05-19T19:45:18.589Z,11.79
2023-05-19T19:47:20.130Z,11.75
2023-05-19T19:49:21.721Z,11.70
2023-05-19T19:51:23.255Z,11.65
2023-05-19T19:53:24.823Z,11.59
2023-05-19T19:55:26.415Z,11.59
2023-05-19T19:57:28.020Z,11.56
2023-05-19T19:59:30.577Z,11.50
2023-05-19T20:01:33.752Z,11.54
2023-05-19T20:03:35.662Z,11.48
2023-05-19T20:05:37.429Z,11.44
2023-05-19T20:07:38.934Z,11.41
2023-05-19T20:09:40.503Z,11.46
2023-05-19T20:11:42.082Z,11.41
2023-05-19T20:13:43.598Z,11.40
2023-05-19T20:15:46.589Z,11.39
2023-05-19T20:17:49.554Z,11.24
2023-05-19T20:19:51.124Z,11.33
2023-05-19T20:21:52.665Z,11.27
2023-05-19T20:23:54.204Z,11.23
2023-05-19T20:26:11.143Z,11.14
2023-05-19T20:28:13.825Z,11.13
2023-05-19T20:30:15.334Z,11.08
2023-05-19T20:32:16.895Z,11.16
2023-05-19T20:34:19.812Z,11.19
2023-05-19T20:36:21.375Z,11.17
2023-05-19T20:38:22.911Z,11.18
2023-05-19T20:40:24.521Z,11.17
2023-05-19T20:42:26.085Z,11.18
2023-05-19T20:44:27.641Z,11.12
2023-05-19T20:46:29.345Z,11.12
2023-05-19T20:48:31.010Z,10.91
2023-05-19T20:50:34.133Z,10.86
2023-05-19T20:52:35.905Z,10.86
2023-05-19T20:54:37.450Z,10.73
2023-05-19T20:56:38.984Z,10.80
2023-05-19T20:58:40.534Z,10.84
2023-05-19T21:00:42.067Z,10.89
2023-05-19T21:02:43.678Z,10.86
2023-05-19T21:04:45.315Z,10.84
2023-05-19T21:06:48.256Z,10.96
2023-05-19T21:08:50.065Z,10.97
2023-05-19T21:10:51.707Z,11.00
2023-05-19T21:12:53.243Z,10.99
2023-05-19T21:14:54.815Z,11.01
2023-05-19T21:16:56.645Z,10.91
2023-05-19T21:18:58.298Z,10.93
2023-05-19T21:21:02.095Z,10.88
2023-05-19T21:23:04.971Z,10.86
2023-05-19T21:25:07.120Z,10.87
2023-05-19T21:27:08.669Z,10.86
2023-05-19T21:29:10.514Z,10.92
2023-05-19T21:31:12.092Z,10.94
2023-05-19T21:33:13.748Z,10.96
2023-05-19T21:35:15.531Z,10.94
2023-05-19T21:37:17.065Z,10.90
2023-05-19T21:39:20.022Z,10.77
2023-05-19T21:41:21.559Z,10.76
2023-05-19T21:43:23.110Z,10.96
2023-05-19T21:45:24.682Z,10.95
2023-05-19T21:47:26.291Z,10.92
2023-05-19T21:49:27.858Z,10.90
2023-05-19T21:51:29.433Z,10.77
2023-05-19T21:53:31.004Z,10.81
2023-05-19T21:55:34.451Z,10.83
2023-05-19T21:57:35.980Z,10.91
2023-05-19T21:59:37.722Z,10.86
2023-05-19T22:01:39.307Z,10.83
2023-05-19T22:03:41.045Z,10.77
2023-05-19T22:05:42.787Z,10.72
2023-05-19T22:07:44.304Z,10.71
2023-05-19T22:09:46.962Z,10.66
2023-05-19T22:11:51.877Z,10.66
2023-05-19T22:13:53.457Z,10.62
2023-05-19T22:15:55.208Z,10.60
2023-05-19T22:17:57.456Z,10.62
2023-05-19T22:19:59.077Z,10.60
2023-05-19T22:22:12.597Z,10.59
2023-05-19T22:24:15.499Z,10.55
2023-05-19T22:26:17.053Z,10.52
2023-05-19T22:28:19.955Z,10.27
2023-05-19T22:30:21.974Z,10.43
2023-05-19T22:32:23.507Z,10.42
2023-05-19T22:34:25.226Z,10.30
2023-05-19T22:36:26.833Z,10.34
2023-05-19T22:38:28.371Z,10.29
2023-05-19T22:40:29.896Z,10.34
2023-05-19T22:42:31.430Z,10.43
2023-05-19T22:44:34.351Z,10.48
2023-05-19T22:46:36.025Z,10.52
2023-05-19T22:48:37.588Z,10.56
2023-05-19T22:50:39.110Z,10.47
2023-05-19T22:52:40.656Z,10.44
2023-05-19T22:54:42.394Z,10.39
2023-05-19T22:56:45.222Z,10.45
2023-05-19T22:58:47.836Z,10.42
2023-05-19T23:00:50.776Z,10.45
2023-05-19T23:02:52.418Z,10.44
2023-05-19T23:04:54.033Z,10.42
2023-05-19T23:06:55.550Z,10.42
2023-05-19T23:09:01.140Z,10.22
2023-05-19T23:11:02.727Z,10.41
2023-05-19T23:13:04.338Z,10.44
2023-05-19T23:15:07.094Z,10.44
2023-05-19T23:17:10.035Z,10.40
2023-05-19T23:19:11.748Z,10.39
2023-05-19T23:21:13.365Z,10.33
2023-05-19T23:23:14.905Z,10.34
2023-05-19T23:25:16.583Z,10.31
2023-05-19T23:27:18.267Z,10.35
2023-05-19T23:29:19.882Z,10.31
2023-05-19T23:31:21.470Z,10.27
2023-05-19T23:33:24.560Z,10.22
2023-05-19T23:35:26.171Z,10.30
2023-05-19T23:37:27.704Z,10.30
2023-05-19T23:39:29.256Z,10.30
2023-05-19T23:41:30.844Z,10.24
2023-05-19T23:43:32.603Z,10.22
2023-05-19T23:45:34.502Z,10.12
2023-05-19T23:47:36.337Z,10.20
2023-05-19T23:49:39.271Z,10.17
2023-05-19T23:51:40.913Z,10.17
2023-05-19T23:53:42.477Z,10.15
2023-05-19T23:55:44.750Z,10.18
2023-05-19T23:57:46.284Z,10.12
2023-05-19T23:59:47.825Z,10.13
